WLC weather

Walcha Airport
New South Wales, Australia

Public forecast

Using degrees Celsius for public forecast. Weather courtesy of forecast.io.

Closest aviation weather report (METAR) to Walcha Airport

Closest report is Tamworth Airport, 37.4 nm (69.2 km) W. Retrieved 2019/10/21 02:30 UTC (0 seconds ago):

YSTW 210230Z AUTO 23008KT 170V250 9999 // NCD 24/M02 Q1024 RF000/0000

Closest aviation forecast (TAF) to Walcha Airport

Closest forecast is Tamworth Airport, 37.4 nm (69.2 km) W. Retrieved 2019-10-21 00:36 UTC (2 hours ago):

TAF TAF YSTW 202251Z 2100/2118 10005KT CAVOK FM210200 17008KT CAVOK FM210900 11008KT CAVOK